M I D A S
Marine Information and Data Acquisition System
Tripno 1744 of the Zeeleeuw from 2009-08-03 06:53:44 to 2009-08-03 07:55:47
Back to CruiseResearch ActivitiesStationsMapUnderway DataData graphs

EquipmentUnitsComment
TimeDGPSUTC
LatitudeDGPSDM.mWGS84
LongitudeDGPSDM.mWGS84
HeadingGyrodeg 
SOGDGPSknotsSpeed over ground
COGDGPSdegCourse over ground
DepthEcho soundermeters200 kHz
Missing or incorrect values are displayed as -999
Navigation data collected by the RV Zeeleeuw from 2009-08-03 06:53:03 to 2009-08-03 08:01:03
Time Latitude Longitude Heading SOG COG Depth
2009-08-03 06:54:08 51°15.071 2°51.564 284.9 11.9 281 11.2
2009-08-03 06:55:08 51°15.116 2°51.258 289.7 11.8 286 11.8
2009-08-03 06:56:08 51°15.174 2°50.958 291.4 11.8 287 12.3
2009-08-03 06:57:08 51°15.231 2°50.656 291.5 11.9 287 12.3
2009-08-03 06:58:08 51°15.286 2°50.353 290 11.9 285 12.7
2009-08-03 06:59:07 51°15.342 2°50.057 292.3 11.8 288 12.5
2009-08-03 07:00:08 51°15.402 2°49.753 291.7 11.8 287 12.8
2009-08-03 07:01:08 51°15.46 2°49.455 291.8 11.7 287 13
2009-08-03 07:02:08 51°15.518 2°49.158 291.8 11.7 287 12.4
2009-08-03 07:03:08 51°15.574 2°48.863 291.4 11.6 286 10.6
2009-08-03 07:04:07 51°15.629 2°48.573 291.6 11.6 287 10.5
2009-08-03 07:05:08 51°15.686 2°48.272 291.5 11.7 287 11.4
2009-08-03 07:06:08 51°15.742 2°47.973 291.3 11.8 287 13.2
2009-08-03 07:07:08 51°15.798 2°47.673 291.4 11.7 287 14.7
2009-08-03 07:08:08 51°15.852 2°47.372 289.6 11.8 285 15.9
2009-08-03 07:09:07 51°15.908 2°47.078 290.3 11.8 287 16.5
2009-08-03 07:10:08 51°15.966 2°46.775 290.4 11.7 286 16
2009-08-03 07:11:08 51°16.024 2°46.479 290.5 11.6 287 13
2009-08-03 07:12:08 51°16.083 2°46.188 295.5 11.4 292 12.6
2009-08-03 07:13:08 51°16.163 2°45.915 300.5 11.4 296 10.8
2009-08-03 07:14:07 51°16.248 2°45.651 301.9 11.3 297 10.5
2009-08-03 07:15:08 51°16.331 2°45.376 301.4 11.4 295 10.9
2009-08-03 07:16:08 51°16.408 2°45.102 300.5 11.3 294 11.3
2009-08-03 07:17:08 51°16.487 2°44.828 301.2 11.4 295 10.1
2009-08-03 07:18:08 51°16.567 2°44.551 300.3 11.4 294 12.1
2009-08-03 07:19:08 51°16.645 2°44.274 300.5 11.6 294 14.3
2009-08-03 07:20:08 51°16.723 2°43.994 300.6 11.5 294 14.9
2009-08-03 07:21:08 51°16.797 2°43.712 298.6 11.5 292 14.9
2009-08-03 07:22:08 51°16.881 2°43.438 305.3 11.5 298 13.5
2009-08-03 07:23:08 51°16.975 2°43.173 306.5 11.5 300 12.6
2009-08-03 07:24:08 51°17.071 2°42.906 306.1 11.5 300 10.6
2009-08-03 07:25:07 51°17.165 2°42.646 305.1 11.5 300 10.5
2009-08-03 07:26:08 51°17.262 2°42.372 304.1 11.7 299 19.4
2009-08-03 07:27:08 51°17.358 2°42.103 305.4 11.6 300 23.2
2009-08-03 07:28:08 51°17.44 2°41.824 298.3 11.7 292 24.2
2009-08-03 07:29:08 51°17.497 2°41.526 289.4 11.8 284 23.9
2009-08-03 07:30:08 51°17.543 2°41.221 290 11.8 283 23.2
2009-08-03 07:31:07 51°17.588 2°40.922 290.2 11.8 284 21.9
2009-08-03 07:32:08 51°17.635 2°40.613 290.1 11.8 283 16.6
2009-08-03 07:33:08 51°17.683 2°40.31 290.5 11.8 284 15.2
2009-08-03 07:34:08 51°17.735 2°40.01 290.3 11.8 285 15.2
2009-08-03 07:35:07 51°17.786 2°39.713 289 11.8 286 19.2
2009-08-03 07:36:08 51°17.842 2°39.41 290.3 11.7 286 24.3
2009-08-03 07:37:08 51°17.897 2°39.112 290.1 11.7 286 26.9
2009-08-03 07:38:08 51°17.952 2°38.814 289.7 11.7 285 26.8
2009-08-03 07:39:07 51°18.004 2°38.521 289.7 11.7 285 26.8
2009-08-03 07:40:08 51°18.056 2°38.216 290.1 11.7 284 26.7
2009-08-03 07:41:08 51°18.104 2°37.915 288.5 11.8 280 26.1
2009-08-03 07:42:08 51°18.124 2°37.602 280.4 11.9 274 24.9
2009-08-03 07:43:08 51°18.14 2°37.288 279 11.9 274 22.6
2009-08-03 07:44:07 51°18.155 2°36.981 279.4 11.8 274 20.4
2009-08-03 07:45:08 51°18.175 2°36.664 280.6 11.8 276 17.1
2009-08-03 07:46:08 51°18.196 2°36.354 281.6 11.8 277 15.8
2009-08-03 07:47:08 51°18.222 2°36.043 282.2 11.8 277 17.4
2009-08-03 07:48:08 51°18.247 2°35.731 281.1 11.9 278 24.5
2009-08-03 07:49:07 51°18.272 2°35.424 281.3 11.8 278 27.4
2009-08-03 07:50:08 51°18.3 2°35.108 281.5 11.9 278 27.4
2009-08-03 07:51:08 51°18.327 2°34.796 281.7 11.9 278 26.9
2009-08-03 07:52:07 51°18.351 2°34.49 279.3 11.8 276 27.2
2009-08-03 07:53:08 51°18.376 2°34.174 280.9 11.8 277 24.2
2009-08-03 07:54:08 51°18.402 2°33.864 281.8 11.8 278 20.2
2009-08-03 07:55:08 51°18.43 2°33.554 282.5 11.7 278 17.6
2009-08-03 07:56:07 51°18.455 2°33.252 280.4 11.7 277 21
2009-08-03 07:57:08 51°18.482 2°32.94 282.3 11.6 278 24.5
2009-08-03 07:58:08 51°18.506 2°32.633 280.2 11.7 277 25.5
2009-08-03 07:59:08 51°18.529 2°32.324 280.8 11.7 276 28.8
2009-08-03 08:00:08 51°18.554 2°32.016 285.7 11.6 280 29.9